Elmer City, Washington
Current Conditions -  °F | °C
As of 12:53 AM on Monday 24 Nov 2014 (Local Time) from KOMK Reporting Station
Clear Clear  
Wind Chill: -10°   Ceiling: Unl
Heat Index: -7°   Visibility: 10mi
Dew Point: -8°   Wind: 5mph
Humidity: 89%   Direction: 300°WNW
Pressure: 30.25"   Gusts: NA
Location:  48°N, 118.95°W
Report Text: KOMK 240853Z AUTO 30004KT 10SM CLR M07/M08 A3025 RMK AO2 SLP260 I1000 I3000 T10671083 51030
Loading
Personal Weather Stations






























Interactive Weather Map New forecast layout! Learn more

10-Day Weather Forecast

Advertisements
Track Severe Weather on mobile